Startpagina
METAR-TAF:

METAR-TAF

Vliegvelden :

São Gabriel da Cachoeira, Amazonas, Brazilië

breedte: 00-08S, lengte: 067-05W, hoogte: 90 m

Actueel weer

Dit bericht is 13 uur en het 52 minuten geleden gemaakt, om 19:00 UTC
Wind 12 kt uit het oostnoordoosten
Temperatuur 30°C
Vochtigheid 75%
Druk 1007 hPa
Zicht 10 km of meer
Gebroken wolken op 3000 ft
Weinig wolken op 3500 ft, Cumulonimbus.
Gebroken wolken op 8000 ft
onweer

METAR: SBUA 141900Z 06012KT 9999 TS BKN030 FEW035CB BKN080 30/25 Q1007

Tijdstip: 04:52 (08:52 UTC)


TAF: ontbreekt

Waarnemingen en weersverwachtingen van meer dan 4000 vliegvelden (METAR en TAF).

De beschikbare stations zijn de gele en rode punten op de kaart.

Ga met uw muis naar het station om de naam te zien.

Klik dan om waarnemingen en weersverwachtingen te zien.

kaart wijzigen: klik op de groene knoppen met een zwart kruis om in te zoomen, op de groene knop met een streepje om uit te zoomen of op de groene pijlen voor aangrenzende kaarten.


METAR-TAF: